Time;durP1;ratioP1;P1;durP2;ratioP2;P2;SDS_P1;SDS_P2;PMS_P1;PMS_P2;Temp;Humidity;BMP_temperature;BMP_pressure;BME280_temperature;BME280_humidity;BME280_pressure;Samples;Min_cycle;Max_cycle;Signal;HPM_P1;HPM_P2
2022/01/03 00:00:12;;;;;;;39.37;4.57;;;10.50;99.90;;;;;;5052996;28;20192;-56
2022/01/03 00:02:40;;;;;;;32.87;4.13;;;10.50;99.90;;;;;;5052946;28;20184;-56
2022/01/03 00:05:06;;;;;;;31.93;4.07;;;10.40;99.90;;;;;;5052833;28;20181;-57
2022/01/03 00:07:39;;;;;;;29.07;3.90;;;10.40;99.90;;;;;;5052749;28;20181;-56
2022/01/03 00:10:06;;;;;;;36.73;4.80;;;10.40;99.90;;;;;;5053087;28;20181;-57
2022/01/03 00:12:33;;;;;;;26.73;3.23;;;10.50;99.90;;;;;;5053084;28;20221;-58
2022/01/03 00:15:00;;;;;;;21.27;3.63;;;10.60;99.90;;;;;;5052812;28;20590;-58
2022/01/03 00:17:26;;;;;;;25.03;3.23;;;10.60;99.90;;;;;;5051789;28;20192;-58
2022/01/03 00:19:52;;;;;;;18.03;2.90;;;10.60;99.90;;;;;;5052530;28;20276;-58
2022/01/03 00:22:21;;;;;;;36.43;4.20;;;10.60;99.90;;;;;;5052724;28;20711;-58
2022/01/03 00:25:15;;;;;;;22.37;3.37;;;10.60;99.90;;;;;;5052979;28;20180;-58
2022/01/03 00:27:58;;;;;;;18.13;3.40;;;10.60;99.90;;;;;;5051977;28;20205;-58
2022/01/03 00:30:25;;;;;;;30.40;3.17;;;10.60;99.90;;;;;;5052672;28;20264;-58
2022/01/03 00:32:52;;;;;;;31.43;3.63;;;10.50;99.90;;;;;;5035807;28;20224;-57
2022/01/03 00:35:21;;;;;;;34.03;4.23;;;10.50;99.90;;;;;;5052767;28;20219;-57
2022/01/03 00:37:48;;;;;;;23.23;3.27;;;10.60;99.90;;;;;;5051990;28;20229;-58
2022/01/03 00:40:17;;;;;;;24.23;3.10;;;10.60;99.90;;;;;;5052154;28;20407;-57
2022/01/03 00:42:44;;;;;;;32.97;3.60;;;10.60;99.90;;;;;;5052752;28;20185;-57
2022/01/03 00:45:10;;;;;;;29.13;3.53;;;10.60;99.90;;;;;;5052382;28;20589;-58
2022/01/03 00:47:36;;;;;;;31.13;3.67;;;10.70;99.90;;;;;;5052251;28;20186;-57
2022/01/03 00:50:06;;;;;;;23.63;3.73;;;10.70;99.90;;;;;;5052469;28;20277;-57
2022/01/03 00:52:32;;;;;;;30.77;3.43;;;10.70;99.90;;;;;;5052567;28;20177;-57
2022/01/03 00:54:58;;;;;;;22.30;3.27;;;10.80;99.90;;;;;;5051912;28;20533;-57
2022/01/03 00:57:34;;;;;;;28.83;4.33;;;10.80;99.90;;;;;;5051946;28;20185;-57
2022/01/03 01:00:06;;;;;;;26.03;3.37;;;10.80;99.90;;;;;;5052086;28;20188;-58
2022/01/03 01:02:37;;;;;;;31.17;4.17;;;10.90;99.90;;;;;;5051835;28;20177;-57
2022/01/03 01:05:05;;;;;;;18.60;3.13;;;10.80;99.90;;;;;;5052044;28;20176;-58
2022/01/03 01:07:32;;;;;;;29.10;3.63;;;10.90;99.90;;;;;;5050695;28;20178;-57
2022/01/03 01:13:21;;;;;;;26.13;3.97;;;10.80;99.90;;;;;;5032036;28;20243;-58
2022/01/03 01:15:47;;;;;;;26.13;3.73;;;10.80;99.90;;;;;;5050061;28;20174;-58
2022/01/03 01:18:13;;;;;;;20.57;3.27;;;10.70;99.90;;;;;;5051404;28;20296;-58
2022/01/03 01:20:40;;;;;;;24.13;3.37;;;10.70;99.90;;;;;;5051656;28;20220;-58
2022/01/03 01:23:08;;;;;;;36.53;3.70;;;10.70;99.90;;;;;;5051798;28;20671;-58
2022/01/03 01:28:00;;;;;;;33.87;3.97;;;10.70;99.90;;;;;;5050930;28;20177;-58
2022/01/03 01:30:28;;;;;;;26.23;3.77;;;10.80;99.90;;;;;;5051448;28;20260;-58
2022/01/03 01:33:05;;;;;;;32.53;3.20;;;10.80;99.90;;;;;;5050791;28;20862;-58
2022/01/03 01:35:46;;;;;;;29.37;3.67;;;10.80;99.90;;;;;;5051568;28;20699;-58
2022/01/03 01:38:18;;;;;;;32.43;4.10;;;10.80;99.90;;;;;;5051073;28;20201;-58
2022/01/03 01:40:53;;;;;;;22.17;3.53;;;10.80;99.90;;;;;;5051175;28;20182;-58
2022/01/03 01:43:36;;;;;;;22.97;3.20;;;10.80;99.90;;;;;;5051049;28;20230;-59
2022/01/03 01:46:14;;;;;;;19.77;3.40;;;10.80;99.90;;;;;;5051318;28;20274;-58
2022/01/03 01:48:44;;;;;;;28.93;3.50;;;10.80;99.90;;;;;;5050898;28;20204;-58
2022/01/03 01:51:12;;;;;;;29.13;3.53;;;10.70;99.90;;;;;;5050706;28;20185;-58
2022/01/03 01:53:47;;;;;;;29.90;4.07;;;10.80;99.90;;;;;;5051338;28;20161;-58
2022/01/03 01:56:27;;;;;;;20.77;3.83;;;10.80;99.90;;;;;;5050946;28;20599;-58
2022/01/03 01:59:10;;;;;;;26.10;3.20;;;10.80;99.90;;;;;;5050740;28;20231;-58
2022/01/03 02:01:44;;;;;;;17.33;3.30;;;10.70;99.90;;;;;;5050426;28;20716;-58
2022/01/03 02:04:23;;;;;;;24.43;2.90;;;10.60;99.90;;;;;;5050822;28;20211;-58
2022/01/03 02:06:52;;;;;;;21.93;3.30;;;10.40;99.90;;;;;;5050698;28;20230;-58
2022/01/03 02:09:25;;;;;;;25.70;3.57;;;10.30;99.90;;;;;;5050835;28;20189;-58
2022/01/03 02:11:56;;;;;;;18.33;3.10;;;10.20;99.90;;;;;;5050767;28;20278;-58
2022/01/03 02:14:24;;;;;;;32.13;3.43;;;10.20;99.90;;;;;;5050458;28;20299;-58
2022/01/03 02:16:51;;;;;;;31.63;5.07;;;10.20;99.90;;;;;;5050448;28;20188;-58
2022/01/03 02:19:19;;;;;;;40.60;4.17;;;10.20;99.90;;;;;;5050810;28;20280;-58
2022/01/03 02:21:45;;;;;;;39.43;5.03;;;10.20;99.90;;;;;;5048866;28;20177;-58
2022/01/03 02:24:11;;;;;;;30.80;4.10;;;10.10;99.90;;;;;;5050053;28;20184;-58
2022/01/03 02:26:37;;;;;;;44.37;4.33;;;10.20;99.90;;;;;;5050282;28;20169;-58
2022/01/03 02:29:05;;;;;;;27.33;4.20;;;10.10;99.90;;;;;;5050652;28;20651;-58
2022/01/03 02:31:32;;;;;;;41.47;4.20;;;10.10;99.90;;;;;;5048859;28;20266;-61
2022/01/03 02:34:00;;;;;;;27.93;3.87;;;10.20;99.90;;;;;;5046706;28;20197;-56
2022/01/03 02:36:29;;;;;;;35.87;3.70;;;10.30;99.90;;;;;;5049575;28;20181;-56
2022/01/03 02:38:55;;;;;;;32.27;3.80;;;10.40;99.90;;;;;;5049238;28;20229;-57
2022/01/03 02:41:21;;;;;;;39.73;4.03;;;10.30;99.90;;;;;;5050131;28;20706;-57
2022/01/03 02:43:49;;;;;;;35.00;4.33;;;10.40;99.90;;;;;;5050585;28;20220;-57
2022/01/03 02:46:15;;;;;;;16.50;2.63;;;10.30;99.90;;;;;;5050150;28;20268;-57
2022/01/03 02:48:41;;;;;;;31.97;3.63;;;10.30;99.90;;;;;;5050408;28;20173;-57
2022/01/03 02:51:07;;;;;;;34.87;3.80;;;10.30;99.90;;;;;;5049981;28;20168;-56
2022/01/03 02:53:33;;;;;;;29.93;3.53;;;10.30;99.90;;;;;;5050240;28;20267;-57
2022/01/03 02:55:59;;;;;;;28.63;3.77;;;10.20;99.90;;;;;;5050095;28;20252;-57
2022/01/03 02:58:25;;;;;;;26.97;3.67;;;10.20;99.90;;;;;;5050025;28;20393;-57
2022/01/03 03:00:52;;;;;;;26.73;3.30;;;10.20;99.90;;;;;;5050142;28;20188;-57
2022/01/03 03:03:20;;;;;;;26.73;3.17;;;10.20;99.90;;;;;;5050243;28;20165;-57
2022/01/03 03:05:47;;;;;;;29.00;3.17;;;10.10;99.90;;;;;;5050194;28;20635;-57
2022/01/03 03:08:13;;;;;;;28.73;3.47;;;10.10;99.90;;;;;;5049877;28;20242;-57
2022/01/03 03:10:40;;;;;;;33.03;3.57;;;10.10;99.90;;;;;;5050174;28;20203;-57
2022/01/03 03:13:06;;;;;;;34.80;3.73;;;10.10;99.90;;;;;;5050029;28;20181;-57
2022/01/03 03:15:33;;;;;;;34.77;4.10;;;10.10;99.90;;;;;;5049554;28;20246;-57
2022/01/03 03:17:59;;;;;;;29.17;3.37;;;10.10;99.90;;;;;;5049913;28;20220;-57
2022/01/03 03:20:30;;;;;;;26.17;4.30;;;10.10;99.90;;;;;;5049737;28;20188;-57
2022/01/03 03:22:58;;;;;;;25.57;3.13;;;10.10;99.90;;;;;;5050308;28;20169;-58
2022/01/03 03:25:29;;;;;;;33.77;4.47;;;10.00;99.90;;;;;;5049470;28;20165;-57
2022/01/03 03:28:00;;;;;;;25.50;2.97;;;10.00;99.90;;;;;;5050164;28;20173;-57
2022/01/03 03:30:29;;;;;;;26.87;3.37;;;10.10;99.90;;;;;;5049666;28;20198;-57
2022/01/03 03:33:00;;;;;;;23.00;3.60;;;10.10;99.90;;;;;;5049560;28;20232;-57
2022/01/03 03:35:26;;;;;;;20.47;3.53;;;10.10;99.90;;;;;;5048425;28;20188;-57
2022/01/03 03:40:38;;;;;;;29.50;3.50;;;10.20;99.90;;;;;;2641664;22;24189;-57
2022/01/03 03:43:04;;;;;;;25.00;3.90;;;10.10;99.90;;;;;;5025169;28;20437;-56
2022/01/03 03:45:31;;;;;;;27.47;3.47;;;10.10;99.90;;;;;;5030184;28;20707;-56
2022/01/03 03:47:57;;;;;;;33.27;3.93;;;10.00;99.90;;;;;;5029918;28;20672;-56
2022/01/03 03:50:25;;;;;;;26.00;3.47;;;10.00;99.90;;;;;;5030341;28;20254;-57
2022/01/03 03:52:51;;;;;;;32.83;3.43;;;10.10;99.90;;;;;;5033777;28;20181;-57
2022/01/03 03:55:17;;;;;;;27.70;3.47;;;10.00;99.90;;;;;;5033159;28;20992;-57
2022/01/03 03:57:43;;;;;;;28.30;4.00;;;10.00;99.90;;;;;;5033518;28;20192;-57
2022/01/03 04:00:13;;;;;;;35.63;4.30;;;10.00;99.90;;;;;;5033363;28;20170;-57
2022/01/03 04:02:39;;;;;;;29.83;3.90;;;9.90;99.90;;;;;;5033548;28;20241;-57
2022/01/03 04:05:05;;;;;;;19.60;3.23;;;10.00;99.90;;;;;;5033426;28;20177;-57
2022/01/03 04:07:31;;;;;;;30.93;3.67;;;10.00;99.90;;;;;;5033236;28;20519;-57
2022/01/03 04:09:57;;;;;;;24.27;3.37;;;10.00;99.90;;;;;;5033115;28;20185;-57
2022/01/03 04:12:22;;;;;;;35.23;3.63;;;10.00;99.90;;;;;;5032766;28;20182;-57
2022/01/03 04:14:48;;;;;;;25.00;3.40;;;10.00;99.90;;;;;;5033268;28;20184;-56
2022/01/03 04:17:15;;;;;;;27.00;3.80;;;10.00;99.90;;;;;;5032982;28;20628;-57
2022/01/03 04:19:41;;;;;;;22.60;3.27;;;10.10;99.90;;;;;;5033240;28;20194;-56
2022/01/03 04:22:07;;;;;;;24.50;3.50;;;10.10;99.90;;;;;;5032806;28;20212;-56
2022/01/03 04:24:32;;;;;;;34.17;3.97;;;10.20;99.90;;;;;;5032799;28;20182;-56
2022/01/03 04:26:58;;;;;;;29.33;3.63;;;10.20;99.90;;;;;;5032816;28;20182;-56
2022/01/03 04:29:24;;;;;;;28.17;4.53;;;10.30;99.90;;;;;;5032846;28;20213;-57
2022/01/03 04:31:50;;;;;;;35.40;4.10;;;10.30;99.90;;;;;;5032368;28;20178;-56
2022/01/03 04:34:16;;;;;;;22.97;3.33;;;10.30;99.90;;;;;;5032782;28;20209;-56
2022/01/03 04:36:42;;;;;;;27.40;3.60;;;10.30;99.90;;;;;;5032706;28;20205;-56
2022/01/03 04:39:08;;;;;;;28.90;3.83;;;10.30;99.90;;;;;;5032737;28;20170;-56
2022/01/03 04:41:34;;;;;;;25.43;3.17;;;10.40;99.90;;;;;;5031813;28;20210;-56
2022/01/03 04:44:00;;;;;;;27.37;3.40;;;10.40;99.90;;;;;;5032439;28;20667;-56
2022/01/03 04:46:27;;;;;;;26.77;4.10;;;10.40;99.90;;;;;;5032586;28;20201;-56
2022/01/03 04:48:53;;;;;;;30.57;4.37;;;10.40;99.90;;;;;;5032202;28;20562;-56
2022/01/03 04:51:19;;;;;;;23.13;2.67;;;10.90;99.90;;;;;;5032403;28;20264;-56
2022/01/03 04:53:45;;;;;;;27.73;3.30;;;10.50;99.90;;;;;;5032333;28;20324;-56
2022/01/03 04:56:12;;;;;;;40.40;4.57;;;10.40;99.90;;;;;;5032205;28;20648;-56
2022/01/03 04:58:39;;;;;;;32.03;4.13;;;10.40;99.90;;;;;;5032370;28;20264;-56
2022/01/03 05:01:06;;;;;;;39.43;4.17;;;10.40;99.90;;;;;;5032205;28;20759;-56
2022/01/03 05:03:32;;;;;;;30.27;3.90;;;10.40;99.90;;;;;;5031729;28;20177;-56
2022/01/03 05:06:00;;;;;;;32.10;3.60;;;10.50;99.90;;;;;;5032132;28;20177;-56
2022/01/03 05:08:25;;;;;;;32.73;4.47;;;10.50;99.90;;;;;;5032146;28;20224;-57
2022/01/03 05:10:51;;;;;;;32.47;4.27;;;10.40;99.90;;;;;;5031850;28;20170;-56
2022/01/03 05:13:17;;;;;;;33.03;3.57;;;10.40;99.90;;;;;;5031542;28;20539;-56
2022/01/03 05:15:43;;;;;;;28.57;3.93;;;10.30;99.90;;;;;;5031949;28;20174;-56
2022/01/03 05:18:08;;;;;;;26.33;3.47;;;10.30;99.90;;;;;;5031817;28;20170;-56
2022/01/03 05:20:34;;;;;;;28.03;4.20;;;10.20;99.90;;;;;;5031797;28;20586;-56
2022/01/03 05:23:00;;;;;;;36.73;3.87;;;10.20;99.90;;;;;;5031738;28;20185;-56
2022/01/03 05:25:26;;;;;;;24.83;3.00;;;10.30;99.90;;;;;;5031672;28;20236;-56
2022/01/03 05:27:53;;;;;;;33.97;4.10;;;10.40;99.90;;;;;;5028596;28;20217;-56
2022/01/03 05:30:20;;;;;;;23.23;3.73;;;10.50;99.90;;;;;;5031608;28;20174;-56
2022/01/03 05:32:46;;;;;;;27.70;4.03;;;10.50;99.90;;;;;;5031364;28;20188;-59
2022/01/03 05:35:12;;;;;;;31.37;3.43;;;10.50;99.90;;;;;;5031770;28;20196;-58
2022/01/03 05:37:38;;;;;;;31.80;4.20;;;10.50;99.90;;;;;;5031662;28;20177;-56
2022/01/03 05:40:05;;;;;;;18.03;2.87;;;10.50;99.90;;;;;;5031598;28;20181;-56
2022/01/03 05:42:31;;;;;;;27.17;3.40;;;10.50;99.90;;;;;;5030641;28;20214;-58
2022/01/03 05:44:57;;;;;;;38.50;4.03;;;10.40;99.90;;;;;;5031553;28;20683;-58
2022/01/03 05:47:23;;;;;;;25.77;3.70;;;10.30;99.90;;;;;;5031267;28;20287;-55
2022/01/03 05:49:49;;;;;;;28.93;3.57;;;10.30;99.90;;;;;;5031741;28;20181;-58
2022/01/03 05:52:15;;;;;;;22.63;2.93;;;10.30;99.90;;;;;;5030834;28;20265;-57
2022/01/03 05:54:41;;;;;;;29.63;4.10;;;10.30;99.90;;;;;;5031296;28;20259;-57
2022/01/03 05:57:07;;;;;;;31.40;4.03;;;10.40;99.90;;;;;;5031237;28;20189;-56
2022/01/03 05:59:32;;;;;;;29.37;3.97;;;10.30;99.90;;;;;;5031053;28;20184;-56
2022/01/03 06:01:58;;;;;;;29.17;3.87;;;10.20;99.90;;;;;;5030975;28;20174;-56
2022/01/03 06:04:35;;;;;;;31.20;3.77;;;10.20;99.90;;;;;;5031182;28;20647;-56
2022/01/03 06:07:08;;;;;;;22.90;3.20;;;10.20;99.90;;;;;;5031208;28;20254;-56
2022/01/03 06:09:34;;;;;;;26.30;3.10;;;10.20;99.90;;;;;;5031221;28;20287;-56
2022/01/03 06:12:00;;;;;;;26.10;3.20;;;10.20;99.90;;;;;;5030600;28;20284;-56
2022/01/03 06:14:26;;;;;;;32.37;3.60;;;10.20;99.90;;;;;;5030213;28;20178;-56
2022/01/03 06:16:52;;;;;;;23.43;2.73;;;10.20;99.90;;;;;;5031085;28;20545;-56
2022/01/03 06:19:19;;;;;;;32.27;3.70;;;10.20;99.90;;;;;;5030901;28;20324;-56
2022/01/03 06:21:45;;;;;;;16.73;2.73;;;10.20;99.90;;;;;;5030634;28;20181;-56
2022/01/03 06:24:12;;;;;;;23.30;3.23;;;10.20;99.90;;;;;;5031055;28;20228;-56
2022/01/03 06:26:41;;;;;;;26.93;3.33;;;10.20;99.90;;;;;;5030729;28;20193;-56
2022/01/03 06:29:11;;;;;;;25.43;3.37;;;10.20;99.90;;;;;;5030830;28;20317;-55
2022/01/03 06:31:38;;;;;;;21.07;3.20;;;10.20;99.90;;;;;;5030193;28;20641;-56
2022/01/03 06:34:04;;;;;;;23.60;3.30;;;10.20;99.90;;;;;;5030701;28;20257;-60
2022/01/03 06:36:30;;;;;;;23.87;3.60;;;10.10;99.90;;;;;;5012813;28;20216;-56
2022/01/03 06:38:56;;;;;;;26.83;3.43;;;10.10;99.90;;;;;;5029854;28;20247;-56
2022/01/03 06:41:23;;;;;;;25.37;3.00;;;10.00;99.90;;;;;;5030011;28;20217;-56
2022/01/03 06:43:50;;;;;;;36.87;4.30;;;10.00;99.90;;;;;;5030532;28;20189;-56
2022/01/03 06:46:16;;;;;;;28.60;3.00;;;9.90;99.90;;;;;;5030445;28;20228;-56
2022/01/03 06:48:43;;;;;;;20.03;3.20;;;9.90;99.90;;;;;;5030589;28;20343;-56
2022/01/03 06:51:09;;;;;;;19.47;2.67;;;10.00;99.90;;;;;;5030208;28;20288;-55
2022/01/03 06:53:36;;;;;;;20.07;3.00;;;10.00;99.90;;;;;;5030403;28;20648;-56
2022/01/03 06:56:02;;;;;;;27.60;3.87;;;9.00;99.90;;;;;;5030320;28;20173;-56
2022/01/03 06:58:28;;;;;;;32.07;3.43;;;10.00;99.90;;;;;;5030434;28;20174;-56
2022/01/03 07:00:54;;;;;;;22.00;2.60;;;10.00;99.90;;;;;;5029869;28;20173;-56
2022/01/03 07:03:20;;;;;;;28.37;3.33;;;10.00;99.90;;;;;;5030015;28;20207;-56
2022/01/03 07:05:45;;;;;;;28.83;3.40;;;9.90;99.90;;;;;;5029933;28;20178;-56
2022/01/03 07:08:11;;;;;;;31.47;3.83;;;9.90;99.90;;;;;;5029979;28;20197;-56
2022/01/03 07:10:37;;;;;;;27.80;3.77;;;9.90;99.90;;;;;;5029972;28;20177;-56
2022/01/03 07:13:03;;;;;;;26.97;3.63;;;10.00;99.90;;;;;;5029662;28;20182;-56
2022/01/03 07:20:57;;;;;;;34.53;4.50;;;10.10;99.90;;;;;;5027993;28;20259;-56
2022/01/03 07:23:23;;;;;;;25.77;3.10;;;10.10;99.90;;;;;;5022547;28;20180;-56
2022/01/03 07:25:50;;;;;;;27.97;3.43;;;10.20;99.90;;;;;;5031220;28;20174;-56
2022/01/03 07:28:17;;;;;;;35.20;3.37;;;10.20;99.90;;;;;;5033414;28;20202;-56
2022/01/03 07:30:43;;;;;;;28.93;3.27;;;10.30;99.90;;;;;;5015142;28;20205;-56
2022/01/03 07:33:09;;;;;;;34.27;3.70;;;10.30;99.90;;;;;;5033405;28;20188;-56
2022/01/03 07:35:35;;;;;;;26.07;3.20;;;10.30;99.90;;;;;;5033560;28;20174;-56
2022/01/03 07:38:03;;;;;;;29.27;3.60;;;10.30;99.90;;;;;;5033801;28;20656;-56
2022/01/03 07:40:29;;;;;;;25.70;4.27;;;10.30;99.90;;;;;;5033324;28;20182;-56
2022/01/03 07:42:58;;;;;;;23.27;3.60;;;10.30;99.90;;;;;;5033359;28;20214;-56
2022/01/03 07:45:25;;;;;;;24.33;3.13;;;10.30;99.90;;;;;;5032694;28;20182;-56
2022/01/03 07:47:51;;;;;;;20.80;3.03;;;10.30;99.90;;;;;;5033561;28;20205;-56
2022/01/03 07:50:17;;;;;;;25.30;2.97;;;10.30;99.90;;;;;;5031207;28;20186;-56
2022/01/03 07:52:43;;;;;;;27.43;3.87;;;10.30;99.90;;;;;;5033260;28;20186;-55
2022/01/03 07:55:11;;;;;;;19.30;3.17;;;10.20;99.90;;;;;;5033172;28;20181;-55
2022/01/03 07:57:38;;;;;;;27.13;2.77;;;10.20;99.90;;;;;;5033517;28;20180;-56
2022/01/03 08:00:06;;;;;;;28.97;3.17;;;10.20;99.90;;;;;;5033193;28;20189;-56
2022/01/03 08:02:32;;;;;;;21.70;3.27;;;10.20;99.90;;;;;;5033004;28;20185;-56
2022/01/03 08:04:58;;;;;;;22.40;3.70;;;10.10;99.90;;;;;;5033367;28;20178;-56
2022/01/03 08:07:24;;;;;;;22.33;2.70;;;10.10;99.90;;;;;;5031931;28;20173;-56
2022/01/03 08:09:49;;;;;;;19.10;2.33;;;10.10;99.90;;;;;;5033074;28;20608;-61
2022/01/03 08:12:16;;;;;;;18.70;2.27;;;10.00;99.90;;;;;;5049229;28;20256;-60
2022/01/03 08:14:43;;;;;;;11.57;2.27;;;10.10;99.90;;;;;;5038297;28;20188;-60
2022/01/03 08:17:08;;;;;;;20.27;2.83;;;10.00;99.90;;;;;;5032663;28;20646;-60
2022/01/03 08:19:34;;;;;;;21.60;2.60;;;10.00;99.90;;;;;;5032902;28;20169;-61
2022/01/03 08:22:00;;;;;;;16.63;1.97;;;10.00;99.90;;;;;;5032684;28;20658;-60
2022/01/03 08:24:26;;;;;;;18.00;2.60;;;10.00;99.90;;;;;;5032739;28;20640;-60
2022/01/03 08:26:52;;;;;;;17.53;2.60;;;10.00;99.90;;;;;;5031780;28;20266;-60
2022/01/03 08:29:18;;;;;;;10.77;1.80;;;9.90;99.90;;;;;;5032614;28;20305;-62
2022/01/03 08:31:43;;;;;;;22.73;2.63;;;9.90;99.90;;;;;;5032591;28;20185;-60
2022/01/03 08:34:09;;;;;;;23.23;3.10;;;9.90;99.90;;;;;;5032081;28;20239;-60
2022/01/03 08:36:35;;;;;;;25.77;2.30;;;9.90;99.90;;;;;;5032150;28;20648;-60
2022/01/03 08:39:01;;;;;;;21.90;2.30;;;9.90;99.90;;;;;;5031826;28;20227;-59
2022/01/03 08:41:27;;;;;;;18.33;2.73;;;9.80;99.90;;;;;;5031258;28;20224;-62
2022/01/03 08:43:53;;;;;;;24.87;2.90;;;9.80;99.90;;;;;;5030725;28;20166;-63
2022/01/03 08:46:19;;;;;;;23.27;2.60;;;9.80;99.90;;;;;;5031965;28;20190;-61
2022/01/03 08:48:45;;;;;;;26.67;2.40;;;9.80;99.90;;;;;;5032169;28;20234;-61
2022/01/03 08:51:11;;;;;;;24.50;2.97;;;9.80;99.90;;;;;;5031899;28;20184;-62
2022/01/03 08:53:37;;;;;;;17.17;2.27;;;9.80;99.90;;;;;;5032125;28;20178;-62
2022/01/03 08:56:03;;;;;;;24.60;2.30;;;9.80;99.90;;;;;;5032163;28;20185;-61
2022/01/03 08:58:30;;;;;;;15.00;2.20;;;9.80;99.90;;;;;;5032118;28;20232;-61
2022/01/03 09:00:56;;;;;;;21.07;2.47;;;9.80;99.90;;;;;;5013841;28;20549;-62
2022/01/03 09:03:22;;;;;;;16.43;2.20;;;9.80;99.90;;;;;;5032087;28;20177;-63
2022/01/03 09:05:49;;;;;;;20.07;2.30;;;9.90;99.90;;;;;;5031904;28;20247;-62
2022/01/03 09:08:17;;;;;;;15.23;1.90;;;9.90;99.90;;;;;;5031755;28;20244;-62
2022/01/03 09:10:43;;;;;;;20.87;2.50;;;9.90;99.90;;;;;;5031759;28;20193;-62
2022/01/03 09:13:09;;;;;;;19.27;2.00;;;9.90;99.90;;;;;;5032134;28;20180;-62
2022/01/03 09:15:37;;;;;;;20.53;2.50;;;10.00;99.90;;;;;;5031847;28;20166;-62
2022/01/03 09:18:03;;;;;;;20.90;2.53;;;10.00;99.90;;;;;;5037737;28;20177;-62
2022/01/03 09:20:29;;;;;;;14.27;1.70;;;10.00;99.90;;;;;;5040137;28;20280;-63
2022/01/03 09:23:04;;;;;;;17.90;2.60;;;10.00;99.90;;;;;;5031522;28;20181;-63
2022/01/03 09:30:48;;;;;;;14.67;1.63;;;10.00;99.90;;;;;;5003751;28;20594;-60
2022/01/03 09:33:14;;;;;;;14.77;1.90;;;10.10;99.90;;;;;;5035745;28;20166;-60
2022/01/03 09:35:41;;;;;;;14.43;1.90;;;10.10;99.90;;;;;;5035940;28;20170;-60
2022/01/03 09:38:07;;;;;;;14.63;2.03;;;10.10;99.90;;;;;;5028167;28;20663;-60
2022/01/03 09:40:34;;;;;;;15.23;2.17;;;10.20;99.90;;;;;;5019954;28;20188;-60
2022/01/03 09:43:01;;;;;;;14.57;2.30;;;10.20;99.90;;;;;;5031003;28;20683;-60
2022/01/03 09:45:32;;;;;;;12.37;2.00;;;10.20;99.90;;;;;;5027570;28;20187;-59
2022/01/03 09:48:00;;;;;;;13.53;2.67;;;10.20;99.90;;;;;;5031524;28;20202;-60
2022/01/03 09:50:26;;;;;;;13.40;2.00;;;10.20;99.90;;;;;;5031363;28;20217;-60
2022/01/03 09:52:53;;;;;;;16.10;2.10;;;10.20;99.90;;;;;;5031290;28;20193;-60
2022/01/03 09:55:21;;;;;;;15.10;1.80;;;10.20;99.90;;;;;;5031378;28;20174;-56
2022/01/03 09:57:48;;;;;;;19.00;2.73;;;10.20;99.90;;;;;;5031099;28;20177;-57
2022/01/03 10:00:22;;;;;;;21.93;2.27;;;10.20;99.90;;;;;;5031389;28;20173;-61
2022/01/03 10:02:49;;;;;;;15.37;2.23;;;10.20;99.90;;;;;;5031214;28;20184;-60
2022/01/03 10:05:15;;;;;;;16.73;2.43;;;10.30;99.90;;;;;;5031113;28;20182;-61
2022/01/03 10:07:41;;;;;;;16.67;2.37;;;10.20;99.90;;;;;;5030903;28;20667;-60
2022/01/03 10:10:09;;;;;;;9.53;1.50;;;10.20;99.90;;;;;;5031262;28;20231;-60
2022/01/03 10:12:36;;;;;;;14.47;2.17;;;10.30;99.90;;;;;;5031122;28;20174;-61
2022/01/03 10:15:05;;;;;;;10.47;1.70;;;10.30;99.90;;;;;;5030938;28;20172;-60
2022/01/03 10:17:35;;;;;;;23.60;2.90;;;10.30;99.90;;;;;;5031029;28;20181;-61
2022/01/03 10:20:01;;;;;;;16.67;1.93;;;10.20;99.90;;;;;;5031029;28;20170;-60
2022/01/03 10:22:32;;;;;;;15.77;2.00;;;10.30;99.90;;;;;;5031110;28;20193;-61
2022/01/03 10:25:01;;;;;;;19.50;2.53;;;10.30;99.90;;;;;;5030785;28;20174;-61
2022/01/03 10:27:48;;;;;;;15.60;1.93;;;10.30;99.90;;;;;;5030987;28;20177;-61
2022/01/03 10:30:42;;;;;;;22.60;3.13;;;10.40;99.90;;;;;;5029158;28;20556;-61
2022/01/03 10:33:12;;;;;;;13.70;2.50;;;10.40;99.90;;;;;;5030596;28;20178;-61
2022/01/03 10:35:43;;;;;;;14.07;2.00;;;10.50;99.90;;;;;;5031108;28;20805;-61
2022/01/03 10:38:10;;;;;;;13.27;1.80;;;10.50;99.90;;;;;;5030820;28;20169;-61
2022/01/03 10:40:37;;;;;;;20.40;2.20;;;10.40;99.90;;;;;;5027732;28;20205;-60
2022/01/03 10:43:19;;;;;;;14.10;1.70;;;10.40;99.90;;;;;;5043197;28;20217;-61
2022/01/03 10:45:46;;;;;;;14.50;2.90;;;10.50;99.90;;;;;;5044130;28;20537;-61
2022/01/03 10:48:34;;;;;;;20.43;2.13;;;10.50;99.90;;;;;;5030168;28;20680;-61
2022/01/03 10:51:01;;;;;;;19.63;2.70;;;10.60;99.90;;;;;;5036070;28;20651;-61
2022/01/03 10:53:41;;;;;;;15.13;2.57;;;10.70;99.90;;;;;;5036437;28;20189;-61
2022/01/03 10:56:34;;;;;;;18.97;2.37;;;10.70;99.90;;;;;;5030458;28;20174;-60
2022/01/03 10:59:25;;;;;;;19.10;2.60;;;10.80;99.90;;;;;;4995252;28;20189;-61
2022/01/03 11:02:02;;;;;;;14.33;2.27;;;10.90;99.90;;;;;;5013192;28;20221;-56
2022/01/03 11:04:31;;;;;;;15.60;1.97;;;10.90;99.90;;;;;;5024391;28;20170;-56
2022/01/03 11:13:15;;;;;;;18.47;2.27;;;11.00;99.90;;;;;;5013029;28;20185;-58
2022/01/03 11:16:06;;;;;;;14.37;2.10;;;11.10;99.90;;;;;;5023585;28;20205;-56
2022/01/03 11:18:43;;;;;;;14.17;2.37;;;11.00;99.90;;;;;;5040480;28;20331;-56
2022/01/03 11:21:15;;;;;;;25.67;2.40;;;11.10;99.90;;;;;;5034056;28;20603;-57
2022/01/03 11:23:58;;;;;;;12.13;2.53;;;11.10;99.90;;;;;;5034150;28;20181;-58
2022/01/03 11:26:26;;;;;;;18.53;2.47;;;11.20;99.90;;;;;;5034374;28;20219;-56
2022/01/03 11:28:53;;;;;;;11.93;2.20;;;11.10;99.90;;;;;;5033900;28;20292;-57
2022/01/03 11:31:21;;;;;;;14.93;2.77;;;11.30;99.90;;;;;;5033931;28;20174;-57
2022/01/03 11:33:48;;;;;;;12.03;1.97;;;11.30;99.90;;;;;;5033999;28;20178;-56
2022/01/03 11:36:18;;;;;;;17.37;1.97;;;11.40;99.90;;;;;;5030036;28;20175;-57
2022/01/03 11:38:45;;;;;;;14.13;2.27;;;11.40;99.90;;;;;;5014154;28;20198;-58
2022/01/03 11:41:12;;;;;;;20.50;2.67;;;11.30;99.90;;;;;;5019577;28;20655;-58
2022/01/03 11:43:40;;;;;;;15.23;2.40;;;11.50;99.90;;;;;;5034132;28;20174;-57
2022/01/03 11:46:07;;;;;;;24.00;2.90;;;11.50;99.90;;;;;;5033594;28;20178;-57
2022/01/03 11:48:34;;;;;;;17.50;2.80;;;11.50;99.90;;;;;;5033572;28;20661;-58
2022/01/03 11:51:06;;;;;;;20.53;2.47;;;11.60;99.90;;;;;;5033858;28;20174;-58
2022/01/03 11:53:35;;;;;;;23.20;2.67;;;11.60;99.90;;;;;;5033746;28;20255;-57
2022/01/03 11:56:09;;;;;;;21.37;3.50;;;11.60;99.90;;;;;;5033366;28;20177;-57
2022/01/03 12:04:03;;;;;;;22.20;3.23;;;11.70;99.90;;;;;;5033260;28;20721;-57
2022/01/03 12:06:33;;;;;;;18.63;2.90;;;11.70;99.90;;;;;;5032718;28;20178;-57
2022/01/03 12:09:11;;;;;;;18.57;3.13;;;11.70;99.90;;;;;;5033159;28;20217;-57
2022/01/03 12:11:53;;;;;;;22.10;3.07;;;11.70;99.90;;;;;;5031227;28;20181;-57
2022/01/03 12:14:24;;;;;;;15.17;2.13;;;11.90;99.90;;;;;;5031537;28;20181;-57
2022/01/03 12:16:55;;;;;;;17.07;3.00;;;12.00;99.90;;;;;;5033178;28;20163;-57
2022/01/03 12:19:37;;;;;;;13.67;2.47;;;12.00;99.90;;;;;;5033053;28;20181;-57
2022/01/03 12:22:15;;;;;;;18.27;2.67;;;12.10;99.90;;;;;;5032960;28;20173;-57
2022/01/03 12:24:54;;;;;;;29.57;2.80;;;12.00;99.90;;;;;;5032735;28;20515;-57
2022/01/03 12:27:21;;;;;;;21.77;3.07;;;11.90;99.90;;;;;;5033439;28;20201;-57
2022/01/03 12:29:53;;;;;;;17.07;3.27;;;11.90;99.90;;;;;;5032952;28;20249;-57
2022/01/03 12:32:28;;;;;;;16.67;2.67;;;11.90;99.90;;;;;;5033095;28;20716;-57
2022/01/03 12:35:06;;;;;;;17.63;3.10;;;11.80;99.90;;;;;;5032855;28;20193;-57
2022/01/03 12:37:39;;;;;;;23.10;3.00;;;11.80;99.90;;;;;;5033016;28;20178;-57
2022/01/03 12:40:05;;;;;;;20.47;2.63;;;11.80;99.90;;;;;;5032792;28;20176;-57
2022/01/03 12:42:55;;;;;;;18.73;3.43;;;11.80;99.90;;;;;;5032410;28;20217;-57
2022/01/03 12:45:30;;;;;;;22.17;3.03;;;11.80;99.90;;;;;;5025039;28;20264;-57
2022/01/03 12:48:11;;;;;;;19.27;2.87;;;11.80;99.90;;;;;;5032832;28;20174;-57
2022/01/03 12:50:43;;;;;;;21.17;2.53;;;11.80;99.90;;;;;;5032651;28;20177;-57
2022/01/03 12:53:12;;;;;;;17.60;2.80;;;11.80;99.90;;;;;;5032631;28;20185;-57
2022/01/03 12:55:38;;;;;;;20.63;2.73;;;11.80;99.90;;;;;;5032419;28;20228;-57
2022/01/03 12:58:16;;;;;;;26.77;4.00;;;11.70;99.90;;;;;;5032755;28;20185;-56
2022/01/03 13:01:21;;;;;;;22.97;2.67;;;11.70;99.90;;;;;;5032460;28;20252;-57
2022/01/03 13:03:55;;;;;;;24.77;2.83;;;11.60;99.90;;;;;;5029510;28;20192;-57
2022/01/03 13:06:24;;;;;;;15.20;2.37;;;11.70;99.90;;;;;;5032297;28;20177;-57
2022/01/03 13:08:55;;;;;;;21.77;2.47;;;11.60;99.90;;;;;;5032243;28;20224;-57
2022/01/03 13:11:31;;;;;;;17.40;2.67;;;11.60;99.90;;;;;;5032532;28;20409;-57
2022/01/03 13:14:02;;;;;;;28.53;3.33;;;11.60;99.90;;;;;;5032108;28;20165;-57
2022/01/03 13:16:29;;;;;;;23.33;2.93;;;11.60;99.90;;;;;;5032329;28;20170;-57